Bloomingrose, West Virginia
Current Conditions -  °F | °C
As of 1:54 PM on Thursday 23 Oct 2014 (Local Time) from KCRW Reporting Station
Broken Clouds Broken Clouds  
Wind Chill: 55°   Ceiling: 2800
Heat Index: 55°   Visibility: 10mi
Dew Point: 42°   Wind: 8mph
Humidity: 62%   Direction: 300°WNW
Pressure: 30.16"   Gusts: NA
Location:  38.14°N, 81.63°W
Report Text: KCRW 231754Z 30007KT 210V040 10SM BKN028 13/06 A3016 RMK AO2 SLP212 T01280056 10128 20083 58019
Loading
Personal Weather Stations






























Interactive Weather Map
Tropical Storm Tracking
New forecast layout! Learn more

10-Day Weather Forecast

Advertisements
Track Severe Weather on mobile